createdAt,value
2019-04-03T00:00:34.515Z,9.97
2019-04-03T00:03:05.108Z,10.05
2019-04-03T00:05:35.951Z,10.00
2019-04-03T00:08:07.028Z,10.04
2019-04-03T00:10:38.215Z,9.91
2019-04-03T00:13:10.472Z,9.89
2019-04-03T00:15:40.797Z,9.82
2019-04-03T00:18:11.179Z,9.87
2019-04-03T00:20:41.552Z,9.93
2019-04-03T00:23:12.024Z,9.91
2019-04-03T00:25:42.372Z,9.87
2019-04-03T00:28:12.730Z,9.77
2019-04-03T00:30:43.202Z,9.82
2019-04-03T00:33:13.555Z,9.80
2019-04-03T00:35:43.900Z,9.96
2019-04-03T00:38:14.315Z,9.89
2019-04-03T00:40:44.677Z,10.05
2019-04-03T00:43:15.103Z,9.87
2019-04-03T00:45:45.486Z,9.74
2019-04-03T00:48:15.862Z,9.62
2019-04-03T00:50:46.531Z,9.64
2019-04-03T00:53:16.911Z,9.53
2019-04-03T00:55:47.287Z,9.51
2019-04-03T00:58:41.861Z,9.50
2019-04-03T01:01:12.512Z,9.34
2019-04-03T01:03:42.958Z,9.32
2019-04-03T01:06:16.732Z,9.17
2019-04-03T01:08:47.205Z,9.46
2019-04-03T01:11:17.550Z,9.38
2019-04-03T01:13:47.922Z,9.49
2019-04-03T01:16:21.062Z,9.36
2019-04-03T01:18:51.413Z,9.29
2019-04-03T01:21:23.196Z,9.26
2019-04-03T01:23:53.560Z,9.20
2019-04-03T01:26:24.125Z,9.27
2019-04-03T01:28:54.486Z,9.51
2019-04-03T01:31:24.955Z,9.41
2019-04-03T01:33:55.482Z,9.34
2019-04-03T01:36:27.224Z,9.39
2019-04-03T01:38:58.768Z,9.28
2019-04-03T01:41:29.248Z,9.01
2019-04-03T01:43:59.609Z,9.06
2019-04-03T01:46:30.278Z,9.15
2019-04-03T01:49:00.653Z,9.14
2019-04-03T01:51:31.126Z,9.31
2019-04-03T01:54:02.892Z,9.47
2019-04-03T01:56:35.653Z,9.17
2019-04-03T01:59:08.561Z,8.84
2019-04-03T02:01:39.193Z,8.76
2019-04-03T02:04:12.102Z,8.89
2019-04-03T02:06:43.899Z,8.84
2019-04-03T02:09:16.033Z,8.98
2019-04-03T02:11:47.609Z,8.89
2019-04-03T02:14:21.055Z,8.94
2019-04-03T02:16:53.217Z,8.94
2019-04-03T02:19:25.649Z,8.91
2019-04-03T02:21:58.210Z,9.11
2019-04-03T02:24:27.746Z,8.89
2019-04-03T02:26:58.191Z,9.00
2019-04-03T02:29:28.539Z,9.07
2019-04-03T02:31:58.904Z,8.81
2019-04-03T02:34:33.733Z,9.10
2019-04-03T02:37:01.417Z,9.20
2019-04-03T02:39:31.804Z,8.97
2019-04-03T02:42:02.258Z,9.08
2019-04-03T02:44:32.619Z,9.08
2019-04-03T02:47:03.053Z,9.00
2019-04-03T02:49:33.555Z,8.99
2019-04-03T02:52:03.940Z,8.87
2019-04-03T02:54:35.773Z,9.00
2019-04-03T02:57:06.394Z,9.01
2019-04-03T02:59:36.839Z,9.09
2019-04-03T03:02:07.195Z,8.83
2019-04-03T03:04:38.078Z,8.93
2019-04-03T03:07:08.689Z,9.12
2019-04-03T03:09:39.666Z,8.87
2019-04-03T03:12:10.002Z,8.58
2019-04-03T03:14:40.671Z,8.86
2019-04-03T03:17:11.249Z,8.99
2019-04-03T03:19:41.645Z,8.90
2019-04-03T03:22:11.971Z,8.67
2019-04-03T03:24:42.349Z,8.91
2019-04-03T03:27:12.791Z,8.89
2019-04-03T03:29:43.169Z,8.56
2019-04-03T03:32:19.787Z,8.57
2019-04-03T03:34:55.319Z,8.58
2019-04-03T03:37:17.865Z,8.55
2019-04-03T03:39:48.385Z,8.50
2019-04-03T03:42:18.782Z,8.64
2019-04-03T03:44:49.185Z,8.47
2019-04-03T03:47:19.572Z,8.60
2019-04-03T03:49:50.952Z,8.64
2019-04-03T03:52:21.498Z,8.40
2019-04-03T03:54:52.529Z,8.42
2019-04-03T03:57:23.281Z,8.53
2019-04-03T03:59:54.743Z,8.60
2019-04-03T04:02:25.124Z,8.66
2019-04-03T04:04:55.852Z,8.62
2019-04-03T04:07:26.292Z,8.64
2019-04-03T04:09:56.775Z,8.64
2019-04-03T04:12:27.567Z,8.60
2019-04-03T04:14:58.101Z,8.63
2019-04-03T04:17:28.755Z,8.71
2019-04-03T04:20:03.083Z,8.59
2019-04-03T04:22:31.567Z,8.60
2019-04-03T04:25:03.543Z,8.52
2019-04-03T04:27:37.863Z,8.27
2019-04-03T04:30:06.214Z,8.63
2019-04-03T04:32:36.744Z,8.04
2019-04-03T04:35:10.189Z,8.35
2019-04-03T04:37:40.360Z,8.45
2019-04-03T04:40:11.164Z,8.39
2019-04-03T04:42:41.572Z,8.48
2019-04-03T04:45:12.486Z,8.42
2019-04-03T04:47:45.788Z,8.75
2019-04-03T04:50:18.593Z,8.99
2019-04-03T04:52:49.160Z,8.97
2019-04-03T04:55:19.660Z,9.11
2019-04-03T04:57:50.086Z,8.45
2019-04-03T05:00:20.455Z,8.56
2019-04-03T05:02:51.487Z,8.61
2019-04-03T05:05:22.000Z,8.83
2019-04-03T05:07:52.452Z,8.90
2019-04-03T05:10:23.142Z,9.06
2019-04-03T05:12:53.580Z,9.22
2019-04-03T05:15:24.125Z,9.24
2019-04-03T05:17:57.100Z,9.23
2019-04-03T05:20:26.788Z,8.98
2019-04-03T05:22:57.162Z,8.98
2019-04-03T05:25:29.292Z,9.06
2019-04-03T05:27:59.589Z,9.18
2019-04-03T05:30:30.493Z,11.54
2019-04-03T05:33:01.957Z,11.63
2019-04-03T05:35:32.443Z,11.68
2019-04-03T05:38:02.963Z,11.35
2019-04-03T05:40:33.489Z,11.61
2019-04-03T05:43:04.006Z,11.23
2019-04-03T05:45:35.703Z,10.30
2019-04-03T05:48:12.597Z,9.94
2019-04-03T05:50:39.841Z,10.12
2019-04-03T05:53:10.159Z,9.80
2019-04-03T05:55:41.431Z,9.93
2019-04-03T05:58:12.092Z,10.31
2019-04-03T06:00:43.142Z,10.39
2019-04-03T06:03:14.032Z,10.26
2019-04-03T06:05:45.038Z,10.57
2019-04-03T06:08:16.234Z,10.44
2019-04-03T06:10:47.242Z,10.53
2019-04-03T06:13:17.995Z,10.74
2019-04-03T06:15:48.522Z,10.87
2019-04-03T06:18:20.870Z,11.07
2019-04-03T06:20:51.735Z,10.71
2019-04-03T06:23:22.162Z,11.30
2019-04-03T06:25:52.692Z,11.16
2019-04-03T06:28:23.437Z,11.32
2019-04-03T06:30:56.733Z,11.96
2019-04-03T06:33:27.543Z,12.05
2019-04-03T06:35:57.937Z,12.63
2019-04-03T06:38:28.325Z,12.65
2019-04-03T06:40:58.944Z,14.34
2019-04-03T06:43:30.537Z,14.89
2019-04-03T06:46:01.492Z,15.63
2019-04-03T06:48:31.983Z,15.12
2019-04-03T06:51:02.573Z,14.54
2019-04-03T06:53:34.246Z,14.65
2019-04-03T06:56:07.882Z,14.31
2019-04-03T06:58:38.922Z,15.18
2019-04-03T07:01:08.835Z,14.63
2019-04-03T07:03:40.200Z,16.27
2019-04-03T07:06:11.502Z,16.30
2019-04-03T07:08:42.828Z,16.22
2019-04-03T07:11:22.833Z,16.73
2019-04-03T07:13:45.442Z,17.01
2019-04-03T07:16:16.113Z,17.38
2019-04-03T07:18:46.624Z,18.21
2019-04-03T07:21:17.131Z,16.38
2019-04-03T07:23:47.545Z,16.74
2019-04-03T07:26:17.930Z,15.80
2019-04-03T07:28:48.361Z,15.69
2019-04-03T07:31:18.927Z,15.12
2019-04-03T07:33:49.424Z,16.02
2019-04-03T07:36:20.005Z,16.56
2019-04-03T07:38:50.457Z,15.77
2019-04-03T07:41:23.315Z,15.83
2019-04-03T07:43:52.970Z,16.02
2019-04-03T07:46:23.339Z,16.76
2019-04-03T07:48:53.687Z,17.64
2019-04-03T07:51:24.220Z,18.22
2019-04-03T07:53:54.676Z,17.72
2019-04-03T07:56:25.818Z,17.47
2019-04-03T07:58:57.103Z,17.68
2019-04-03T08:01:27.553Z,17.66
2019-04-03T08:03:58.229Z,17.54
2019-04-03T08:06:28.597Z,17.72
2019-04-03T08:09:07.795Z,17.90
2019-04-03T08:11:32.772Z,17.60
2019-04-03T08:14:03.488Z,18.13
2019-04-03T08:16:34.088Z,17.15
2019-04-03T08:19:04.640Z,17.45
2019-04-03T08:21:36.968Z,17.52
2019-04-03T08:24:08.194Z,17.73
2019-04-03T08:26:39.202Z,18.59
2019-04-03T08:29:09.720Z,18.83
2019-04-03T08:31:43.910Z,18.55
2019-04-03T08:34:16.818Z,17.80
2019-04-03T08:36:46.436Z,17.56
2019-04-03T08:39:17.688Z,17.80
2019-04-03T08:41:48.697Z,18.03
2019-04-03T08:44:19.067Z,18.09
2019-04-03T08:46:49.815Z,17.61
2019-04-03T08:49:20.389Z,17.81
2019-04-03T08:51:51.755Z,17.34
2019-04-03T08:54:22.139Z,17.25
2019-04-03T08:56:52.775Z,17.79
2019-04-03T08:59:23.307Z,18.37
2019-04-03T09:01:55.701Z,18.28
2019-04-03T09:04:26.075Z,18.26
2019-04-03T09:06:56.513Z,18.23
2019-04-03T09:09:29.864Z,17.96
2019-04-03T09:11:59.495Z,17.53
2019-04-03T09:14:29.945Z,17.52
2019-04-03T09:17:02.275Z,17.83
2019-04-03T09:19:32.640Z,18.44
2019-04-03T09:22:06.348Z,18.07
2019-04-03T09:24:36.718Z,18.30
2019-04-03T09:27:08.944Z,18.34
2019-04-03T09:29:39.127Z,18.55
2019-04-03T09:32:09.502Z,18.60
2019-04-03T09:34:39.878Z,18.27
2019-04-03T09:37:10.384Z,17.83
2019-04-03T09:39:44.412Z,17.75
2019-04-03T09:42:13.857Z,18.11
2019-04-03T09:44:44.247Z,17.70
2019-04-03T09:47:14.654Z,17.44
2019-04-03T09:49:45.093Z,18.16
2019-04-03T09:52:15.593Z,18.21
2019-04-03T09:54:46.286Z,17.96
2019-04-03T09:57:16.760Z,18.12
2019-04-03T09:59:47.318Z,18.75
2019-04-03T10:02:19.584Z,19.03
2019-04-03T10:04:50.090Z,19.40
2019-04-03T10:07:20.739Z,19.67
2019-04-03T10:09:53.762Z,19.82
2019-04-03T10:12:23.878Z,19.25
2019-04-03T10:14:57.050Z,18.73
2019-04-03T10:17:28.994Z,19.04
2019-04-03T10:19:59.326Z,19.36
2019-04-03T10:22:32.924Z,19.19
2019-04-03T10:25:06.238Z,19.16
2019-04-03T10:27:36.940Z,19.23
2019-04-03T10:30:09.180Z,19.73
2019-04-03T10:32:39.580Z,19.12
2019-04-03T10:35:09.988Z,19.16
2019-04-03T10:37:40.512Z,19.54
2019-04-03T10:40:11.052Z,19.80
2019-04-03T10:42:42.766Z,19.72
2019-04-03T10:45:13.250Z,19.53
2019-04-03T10:47:44.820Z,19.44
2019-04-03T10:50:16.539Z,19.27
2019-04-03T10:52:49.143Z,19.15
2019-04-03T10:55:20.279Z,19.26
2019-04-03T10:57:50.602Z,19.47
2019-04-03T11:00:23.512Z,19.68
2019-04-03T11:02:53.657Z,19.22
2019-04-03T11:05:24.181Z,19.25
2019-04-03T11:07:54.684Z,19.49
2019-04-03T11:10:26.313Z,19.24
2019-04-03T11:12:56.930Z,19.12
2019-04-03T11:15:27.587Z,19.30
2019-04-03T11:17:58.288Z,19.43
2019-04-03T11:20:28.848Z,19.31
2019-04-03T11:23:06.517Z,19.57
2019-04-03T11:25:31.706Z,19.66
2019-04-03T11:28:05.042Z,19.80
2019-04-03T11:30:34.473Z,20.03
2019-04-03T11:33:06.369Z,20.15
2019-04-03T11:35:37.123Z,20.25
2019-04-03T11:38:14.518Z,20.43
2019-04-03T11:40:39.683Z,20.35
2019-04-03T11:43:10.058Z,20.32
2019-04-03T11:45:40.830Z,20.20
2019-04-03T11:48:11.392Z,20.38
2019-04-03T11:50:42.030Z,20.58
2019-04-03T11:53:12.691Z,20.43
2019-04-03T11:55:43.257Z,20.22
2019-04-03T11:58:13.626Z,20.43
2019-04-03T12:00:45.678Z,20.44
2019-04-03T12:03:16.599Z,20.36
2019-04-03T12:05:47.544Z,20.06
2019-04-03T12:08:18.608Z,20.18
2019-04-03T12:10:49.593Z,20.15
2019-04-03T12:13:22.083Z,20.14
2019-04-03T12:15:53.734Z,19.83
2019-04-03T12:18:25.244Z,20.07
2019-04-03T12:20:55.981Z,20.00
2019-04-03T12:23:27.681Z,20.00
2019-04-03T12:25:58.376Z,19.98
2019-04-03T12:28:28.902Z,20.02
2019-04-03T12:30:59.275Z,19.85
2019-04-03T12:33:29.993Z,20.28
2019-04-03T12:36:00.795Z,20.53
2019-04-03T12:38:31.382Z,20.37
2019-04-03T12:41:04.277Z,20.26
2019-04-03T12:43:33.931Z,20.28
2019-04-03T12:46:04.309Z,20.30
2019-04-03T12:48:34.772Z,20.38
2019-04-03T12:51:05.451Z,20.44
2019-04-03T12:53:37.134Z,20.54
2019-04-03T12:56:07.593Z,20.72
2019-04-03T12:58:38.550Z,20.41
2019-04-03T13:01:11.022Z,20.63
2019-04-03T13:03:41.041Z,20.81
2019-04-03T13:06:11.497Z,20.45
2019-04-03T13:08:41.928Z,20.70
2019-04-03T13:11:12.283Z,20.47
2019-04-03T13:13:45.978Z,20.66
2019-04-03T13:16:20.972Z,20.87
2019-04-03T13:18:50.135Z,20.79
2019-04-03T13:21:20.722Z,21.02
2019-04-03T13:23:51.328Z,21.05
2019-04-03T13:26:24.102Z,20.62
2019-04-03T13:28:53.862Z,20.59
2019-04-03T13:31:24.337Z,20.58
2019-04-03T13:33:54.735Z,20.48
2019-04-03T13:36:25.433Z,20.63
2019-04-03T13:38:55.810Z,20.34
2019-04-03T13:41:26.835Z,20.30
2019-04-03T13:43:57.776Z,20.31
2019-04-03T13:46:28.881Z,20.06
2019-04-03T13:48:59.336Z,19.97
2019-04-03T13:51:29.700Z,20.33
2019-04-03T13:54:01.493Z,20.35
2019-04-03T13:56:31.966Z,20.46
2019-04-03T13:59:02.666Z,20.37
2019-04-03T14:01:33.082Z,20.24
2019-04-03T14:04:04.930Z,19.95
2019-04-03T14:06:36.219Z,20.17
2019-04-03T14:09:07.524Z,20.23
2019-04-03T14:11:37.882Z,20.16
2019-04-03T14:14:08.328Z,19.96
2019-04-03T14:16:39.371Z,19.79
2019-04-03T14:19:11.840Z,19.85
2019-04-03T14:21:45.233Z,19.79
2019-04-03T14:24:17.001Z,19.89
2019-04-03T14:26:48.542Z,19.73
2019-04-03T14:29:19.234Z,19.72
2019-04-03T14:31:50.848Z,19.84
2019-04-03T14:34:21.405Z,19.54
2019-04-03T14:36:51.765Z,19.55
2019-04-03T14:39:22.152Z,19.54
2019-04-03T14:41:54.286Z,19.64
2019-04-03T14:44:25.073Z,19.66
2019-04-03T14:46:55.773Z,19.48
2019-04-03T14:49:26.487Z,19.27
2019-04-03T14:51:57.194Z,19.22
2019-04-03T14:54:30.320Z,19.24
2019-04-03T14:56:59.736Z,19.19
2019-04-03T14:59:31.145Z,19.22
2019-04-03T15:02:02.636Z,19.23
2019-04-03T15:04:36.482Z,19.14
2019-04-03T15:07:09.214Z,19.12
2019-04-03T15:09:37.799Z,19.16
2019-04-03T15:12:08.321Z,19.07
2019-04-03T15:14:39.032Z,19.14
2019-04-03T15:17:10.327Z,19.05
2019-04-03T15:19:41.331Z,18.97
2019-04-03T15:22:12.565Z,19.05
2019-04-03T15:24:44.440Z,19.15
2019-04-03T15:27:15.643Z,18.99
2019-04-03T15:29:46.327Z,18.97
2019-04-03T15:32:19.193Z,18.88
2019-04-03T15:34:50.790Z,18.84
2019-04-03T15:37:23.594Z,18.83
2019-04-03T15:39:57.603Z,18.94
2019-04-03T15:42:26.474Z,18.80
2019-04-03T15:44:57.847Z,18.78
2019-04-03T15:47:37.493Z,18.88
2019-04-03T15:50:00.916Z,18.91
2019-04-03T15:52:31.511Z,18.73
2019-04-03T15:55:03.625Z,18.68
2019-04-03T15:57:34.022Z,18.72
2019-04-03T16:00:12.549Z,18.71
2019-04-03T16:02:45.725Z,18.70
2019-04-03T16:05:15.588Z,18.52
2019-04-03T16:07:46.099Z,18.56
2019-04-03T16:10:16.548Z,18.59
2019-04-03T16:12:47.570Z,18.44
2019-04-03T16:15:18.282Z,18.44
2019-04-03T16:17:48.804Z,18.41
2019-04-03T16:20:19.382Z,18.31
2019-04-03T16:22:50.424Z,18.34
2019-04-03T16:25:21.574Z,18.36
2019-04-03T16:27:53.314Z,18.24
2019-04-03T16:30:23.768Z,18.29
2019-04-03T16:32:57.559Z,18.28
2019-04-03T16:35:28.218Z,18.16
2019-04-03T16:37:59.126Z,18.16
2019-04-03T16:40:31.641Z,18.10
2019-04-03T16:43:02.210Z,18.09
2019-04-03T16:45:32.832Z,17.89
2019-04-03T16:48:04.396Z,17.85
2019-04-03T16:50:36.303Z,17.75
2019-04-03T16:53:08.036Z,17.76
2019-04-03T16:55:38.834Z,17.58
2019-04-03T16:58:09.278Z,17.64
2019-04-03T17:00:41.372Z,17.60
2019-04-03T17:03:13.397Z,17.60
2019-04-03T17:05:45.298Z,17.67
2019-04-03T17:08:16.201Z,17.52
2019-04-03T17:10:46.855Z,17.39
2019-04-03T17:13:18.896Z,17.28
2019-04-03T17:15:49.953Z,17.36
2019-04-03T17:18:20.338Z,17.13
2019-04-03T17:20:51.286Z,17.24
2019-04-03T17:23:21.780Z,17.33
2019-04-03T17:25:52.421Z,16.92
2019-04-03T17:28:26.250Z,16.95
2019-04-03T17:30:55.959Z,17.02
2019-04-03T17:33:26.831Z,16.87
2019-04-03T17:35:58.118Z,16.82
2019-04-03T17:38:31.510Z,16.86
2019-04-03T17:41:00.876Z,16.88
2019-04-03T17:43:32.084Z,17.06
2019-04-03T17:46:02.732Z,16.72
2019-04-03T17:48:33.204Z,16.71
2019-04-03T17:51:03.778Z,16.58
2019-04-03T17:53:36.728Z,16.71
2019-04-03T17:56:07.423Z,16.67
2019-04-03T17:58:37.877Z,16.47
2019-04-03T18:01:09.214Z,16.30
2019-04-03T18:03:39.797Z,16.26
2019-04-03T18:06:10.312Z,16.30
2019-04-03T18:08:42.489Z,16.25
2019-04-03T18:11:13.279Z,16.17
2019-04-03T18:13:44.897Z,16.17
2019-04-03T18:16:15.474Z,16.12
2019-04-03T18:18:45.858Z,16.07
2019-04-03T18:21:17.144Z,16.02
2019-04-03T18:23:48.194Z,16.05
2019-04-03T18:26:19.958Z,16.11
2019-04-03T18:28:50.444Z,16.07
2019-04-03T18:31:21.028Z,15.99
2019-04-03T18:33:51.598Z,16.05
2019-04-03T18:36:22.260Z,15.97
2019-04-03T18:38:52.727Z,15.92
2019-04-03T18:41:23.357Z,15.98
2019-04-03T18:43:54.388Z,15.85
2019-04-03T18:46:32.070Z,15.89
2019-04-03T18:49:01.000Z,15.93
2019-04-03T18:51:30.957Z,15.85
2019-04-03T18:54:01.774Z,15.83
2019-04-03T18:56:33.550Z,15.86
2019-04-03T18:59:04.082Z,15.75
2019-04-03T19:01:34.593Z,15.89
2019-04-03T19:04:07.219Z,15.78
2019-04-03T19:06:38.228Z,15.78
2019-04-03T19:09:10.405Z,15.73
2019-04-03T19:11:41.590Z,15.70
2019-04-03T19:14:12.243Z,15.72
2019-04-03T19:16:45.219Z,15.72
2019-04-03T19:19:16.478Z,15.56
2019-04-03T19:21:47.169Z,15.56
2019-04-03T19:24:17.571Z,15.49
2019-04-03T19:26:47.993Z,15.57
2019-04-03T19:29:19.690Z,15.52
2019-04-03T19:31:50.395Z,15.56
2019-04-03T19:34:21.093Z,15.56
2019-04-03T19:36:51.768Z,15.60
2019-04-03T19:39:22.539Z,15.54
2019-04-03T19:41:53.113Z,15.47
2019-04-03T19:44:23.578Z,15.42
2019-04-03T19:46:54.537Z,15.45
2019-04-03T19:49:27.497Z,15.44
2019-04-03T19:51:57.715Z,15.40
2019-04-03T19:54:28.502Z,15.51
2019-04-03T19:57:00.864Z,15.29
2019-04-03T19:59:34.492Z,15.40
2019-04-03T20:02:03.594Z,15.28
2019-04-03T20:04:34.104Z,15.29
2019-04-03T20:07:06.982Z,15.31
2019-04-03T20:09:37.703Z,15.22
2019-04-03T20:12:08.309Z,15.20
2019-04-03T20:14:38.881Z,15.24
2019-04-03T20:17:09.596Z,15.25
2019-04-03T20:19:40.336Z,15.12
2019-04-03T20:22:10.745Z,15.12
2019-04-03T20:24:43.425Z,15.04
2019-04-03T20:27:14.913Z,15.04
2019-04-03T20:29:45.612Z,15.10
2019-04-03T20:32:16.125Z,15.07
2019-04-03T20:34:46.923Z,15.14
2019-04-03T20:37:17.363Z,15.03
2019-04-03T20:39:47.777Z,14.98
2019-04-03T20:42:18.208Z,14.93
2019-04-03T20:44:48.730Z,15.13
2019-04-03T20:47:21.015Z,14.98
2019-04-03T20:49:51.469Z,14.92
2019-04-03T20:52:21.857Z,14.92
2019-04-03T20:54:53.757Z,14.82
2019-04-03T20:57:25.596Z,14.97
2019-04-03T21:00:01.846Z,14.86
2019-04-03T21:02:28.733Z,14.89
2019-04-03T21:04:59.111Z,14.95
2019-04-03T21:07:29.515Z,14.84
2019-04-03T21:10:01.952Z,14.85
2019-04-03T21:12:35.533Z,14.78
2019-04-03T21:15:08.663Z,14.75
2019-04-03T21:17:38.833Z,14.72
2019-04-03T21:20:09.449Z,14.80
2019-04-03T21:22:39.820Z,14.80
2019-04-03T21:25:10.172Z,14.73
2019-04-03T21:27:40.729Z,14.78
2019-04-03T21:30:12.144Z,14.78
2019-04-03T21:32:42.631Z,14.70
2019-04-03T21:35:13.004Z,14.72
2019-04-03T21:37:43.353Z,14.70
2019-04-03T21:40:15.267Z,14.64
2019-04-03T21:42:46.918Z,14.60
2019-04-03T21:45:17.289Z,14.64
2019-04-03T21:47:47.695Z,14.55
2019-04-03T21:50:19.394Z,14.65
2019-04-03T21:52:53.447Z,14.63
2019-04-03T21:55:22.433Z,14.53
2019-04-03T21:57:52.801Z,14.51
2019-04-03T22:00:40.123Z,14.56
2019-04-03T22:03:10.576Z,14.58
2019-04-03T22:05:40.955Z,14.67
2019-04-03T22:08:12.458Z,14.51
2019-04-03T22:10:42.956Z,14.46
2019-04-03T22:13:13.436Z,14.45
2019-04-03T22:15:45.388Z,14.43
2019-04-03T22:18:15.977Z,14.46
2019-04-03T22:20:46.351Z,14.28
2019-04-03T22:23:16.834Z,14.32
2019-04-03T22:25:47.307Z,14.42
2019-04-03T22:28:17.661Z,14.28
2019-04-03T22:30:48.195Z,14.49
2019-04-03T22:33:18.566Z,14.20
2019-04-03T22:35:48.924Z,14.28
2019-04-03T22:38:19.669Z,14.36
2019-04-03T22:40:50.049Z,14.19
2019-04-03T22:43:21.508Z,14.31
2019-04-03T22:45:52.091Z,14.22
2019-04-03T22:48:26.810Z,14.13
2019-04-03T22:50:55.697Z,14.04
2019-04-03T22:53:26.044Z,13.94
2019-04-03T22:55:56.670Z,14.13
2019-04-03T22:58:27.015Z,14.07
2019-04-03T23:00:59.297Z,14.09
2019-04-03T23:03:29.753Z,14.19
2019-04-03T23:06:00.100Z,14.21
2019-04-03T23:08:30.578Z,14.19
2019-04-03T23:11:01.533Z,14.13
2019-04-03T23:13:33.829Z,14.17
2019-04-03T23:16:04.624Z,14.12
2019-04-03T23:18:35.262Z,14.07
2019-04-03T23:21:05.759Z,14.04
2019-04-03T23:23:36.369Z,14.05
2019-04-03T23:26:06.945Z,13.93
2019-04-03T23:28:37.627Z,13.88
2019-04-03T23:31:11.144Z,13.90
2019-04-03T23:33:41.919Z,13.85
2019-04-03T23:36:12.421Z,13.86
2019-04-03T23:38:42.967Z,13.89
2019-04-03T23:41:13.475Z,13.79
2019-04-03T23:43:44.050Z,13.67
2019-04-03T23:46:14.708Z,13.84
2019-04-03T23:48:47.009Z,13.78
2019-04-03T23:51:23.495Z,13.77
2019-04-03T23:53:50.184Z,13.81
2019-04-03T23:56:20.665Z,13.67
2019-04-03T23:58:51.039Z,13.73
